Time;durP1;ratioP1;P1;durP2;ratioP2;P2;SDS_P1;SDS_P2;PMS_P1;PMS_P2;Temp;Humidity;BMP_temperature;BMP_pressure;BME280_temperature;BME280_humidity;BME280_pressure;Samples;Min_cycle;Max_cycle;Signal;HPM_P1;HPM_P2
2022/12/19 00:01:32;;;;;;;10.43;3.47;;;;;;;-1.91;100.00;101303.25;5024974;28;20460;-51
2022/12/19 00:04:02;;;;;;;5.13;3.83;;;;;;;-1.77;100.00;101304.66;5019305;28;21363;-50
2022/12/19 00:06:34;;;;;;;3.27;1.37;;;;;;;-1.87;100.00;101316.44;5018840;28;20539;-50
2022/12/19 00:09:01;;;;;;;3.50;3.30;;;;;;;-1.81;100.00;101311.47;5024649;28;20496;-50
2022/12/19 00:11:28;;;;;;;4.43;2.17;;;;;;;-1.88;100.00;101312.06;5025933;28;20444;-50
2022/12/19 00:13:55;;;;;;;2.73;2.53;;;;;;;-1.94;100.00;101311.81;5017427;28;20969;-49
2022/12/19 00:16:24;;;;;;;2.00;1.90;;;;;;;-1.86;100.00;101304.31;5023264;28;20467;-49
2022/12/19 00:18:52;;;;;;;2.30;2.20;;;;;;;-1.87;100.00;101294.72;5028819;28;22061;-49
2022/12/19 00:21:23;;;;;;;5.70;2.87;;;;;;;-1.97;100.00;101293.47;5022085;28;20448;-49
2022/12/19 00:23:51;;;;;;;5.40;3.00;;;;;;;-1.91;100.00;101287.63;5030210;28;20452;-50
2022/12/19 00:26:19;;;;;;;0.73;0.73;;;;;;;-1.87;100.00;101266.94;5021747;28;20823;-50
2022/12/19 00:28:47;;;;;;;7.77;6.90;;;;;;;-1.91;100.00;101270.28;5025130;28;20539;-50
2022/12/19 00:31:15;;;;;;;4.00;3.70;;;;;;;-1.96;100.00;101265.72;5015390;28;21016;-49
2022/12/19 00:33:43;;;;;;;3.40;3.13;;;;;;;-1.99;100.00;101268.22;5025673;28;20452;-50
2022/12/19 00:36:12;;;;;;;2.70;2.60;;;;;;;-1.96;100.00;101263.09;5022975;28;20452;-49
2022/12/19 00:38:41;;;;;;;19.33;3.30;;;;;;;-1.90;100.00;101251.22;5020669;28;20508;-50
2022/12/19 00:41:12;;;;;;;2.73;2.63;;;;;;;-1.98;100.00;101251.75;5024068;28;20456;-49
2022/12/19 00:43:39;;;;;;;2.47;2.30;;;;;;;-1.94;100.00;101251.03;5018729;28;20458;-50
2022/12/19 00:46:08;;;;;;;1.57;1.53;;;;;;;-1.89;100.00;101259.91;5019597;28;20460;-49
2022/12/19 00:48:35;;;;;;;5.57;2.30;;;;;;;-1.78;100.00;101269.03;5024766;28;20498;-49
2022/12/19 00:51:20;;;;;;;3.30;2.67;;;;;;;-1.88;100.00;101264.28;5025535;28;20534;-49
2022/12/19 00:53:48;;;;;;;4.67;2.70;;;;;;;-1.84;100.00;101260.97;5023137;28;20463;-50
2022/12/19 00:56:17;;;;;;;4.83;2.63;;;;;;;-1.73;100.00;101275.28;5025472;28;20448;-50
2022/12/19 00:58:44;;;;;;;2.57;2.43;;;;;;;-1.84;100.00;101268.78;5021398;28;20471;-49
2022/12/19 01:01:34;;;;;;;4.43;3.13;;;;;;;-1.86;100.00;101271.34;5024760;28;21387;-50
2022/12/19 01:04:03;;;;;;;3.90;3.70;;;;;;;-1.87;100.00;101268.66;5025378;28;20452;-50
2022/12/19 01:06:50;;;;;;;4.57;2.60;;;;;;;-1.91;100.00;101262.47;5021587;28;20510;-49
2022/12/19 01:09:17;;;;;;;2.27;2.17;;;;;;;-1.80;100.00;101260.22;5027258;28;20554;-49
2022/12/19 01:14:28;;;;;;;11.63;4.77;;;;;;;-1.74;100.00;101263.09;5043742;28;20937;-51
2022/12/19 01:16:55;;;;;;;4.23;3.83;;;;;;;-1.80;100.00;101262.84;5023611;28;20447;-49
2022/12/19 01:19:21;;;;;;;6.10;2.47;;;;;;;-1.80;100.00;101261.13;5022057;28;20470;-49
2022/12/19 01:21:48;;;;;;;2.60;2.50;;;;;;;-1.74;100.00;101270.00;5026607;28;20470;-50
2022/12/19 01:24:14;;;;;;;5.00;3.50;;;;;;;-1.77;100.00;101255.16;5031601;28;20506;-49
2022/12/19 01:26:45;;;;;;;6.97;2.50;;;;;;;-1.83;100.00;101254.91;5024165;28;20473;-50
2022/12/19 01:29:11;;;;;;;35.77;3.47;;;;;;;-1.89;100.00;101254.72;5021522;28;21070;-50
2022/12/19 01:31:38;;;;;;;3.80;3.10;;;;;;;-1.75;100.00;101257.81;5026295;28;20452;-50
2022/12/19 01:34:04;;;;;;;4.00;3.70;;;;;;;-1.84;100.00;101253.16;5028168;28;20506;-50
2022/12/19 01:36:31;;;;;;;1.80;1.03;;;;;;;-1.73;100.00;101243.13;5024262;28;20456;-49
2022/12/19 01:38:57;;;;;;;6.07;3.20;;;;;;;-1.84;100.00;101242.72;5021064;28;20511;-49
2022/12/19 01:41:24;;;;;;;2.53;2.33;;;;;;;-1.86;100.00;101239.19;5025359;28;20515;-49
2022/12/19 01:44:01;;;;;;;12.17;3.43;;;;;;;-1.82;100.00;101235.84;5028232;28;20447;-50
2022/12/19 01:46:46;;;;;;;1.70;1.60;;;;;;;-1.81;100.00;101235.91;5025953;28;20451;-50
2022/12/19 01:49:30;;;;;;;1.33;1.27;;;;;;;-1.65;100.00;101239.06;5026056;28;20499;-50
2022/12/19 01:52:04;;;;;;;1.10;1.07;;;;;;;-1.77;100.00;101233.44;5028596;28;20501;-49
2022/12/19 01:54:37;;;;;;;5.83;3.87;;;;;;;-1.75;100.00;101240.47;5024305;28;20557;-49
2022/12/19 01:57:07;;;;;;;9.97;3.07;;;;;;;-1.67;100.00;101239.00;5021461;28;20454;-50
2022/12/19 01:59:42;;;;;;;7.53;4.40;;;;;;;-1.66;100.00;101243.38;5023630;28;20552;-49
2022/12/19 02:02:24;;;;;;;1.80;1.63;;;;;;;-1.64;100.00;101246.06;5010536;28;20452;-50
2022/12/19 02:04:50;;;;;;;3.60;2.63;;;;;;;-1.58;100.00;101243.66;5027891;28;20447;-50
2022/12/19 02:07:19;;;;;;;3.27;3.07;;;;;;;-1.63;100.00;101245.25;5023234;28;20452;-49
2022/12/19 02:09:47;;;;;;;3.93;2.80;;;;;;;-1.60;100.00;101235.81;5020500;28;20896;-50
2022/12/19 02:12:24;;;;;;;8.33;2.93;;;;;;;-1.60;100.00;101227.09;5024620;28;20445;-50
2022/12/19 02:14:52;;;;;;;8.13;3.57;;;;;;;-1.58;100.00;101228.91;5037343;28;20446;-50
2022/12/19 02:17:49;;;;;;;6.03;3.40;;;;;;;-1.55;100.00;101222.91;5040993;28;20483;-49
2022/12/19 02:21:04;;;;;;;1.20;1.20;;;;;;;-1.58;100.00;101215.88;5019806;28;20503;-50
2022/12/19 02:23:49;;;;;;;29.20;2.93;;;;;;;-1.56;100.00;101215.94;5029524;28;20482;-49
2022/12/19 02:26:37;;;;;;;8.43;4.23;;;;;;;-1.63;100.00;101214.84;5020092;28;20450;-49
2022/12/19 02:29:25;;;;;;;1.27;1.23;;;;;;;-1.55;100.00;101212.50;5020441;28;21033;-49
2022/12/19 02:32:06;;;;;;;1.57;1.47;;;;;;;-1.51;100.00;101216.97;5021414;28;20452;-49
2022/12/19 02:34:42;;;;;;;9.17;2.80;;;;;;;-1.48;100.00;101211.00;5021965;28;20462;-49
2022/12/19 02:37:22;;;;;;;8.50;2.93;;;;;;;-1.47;100.00;101215.38;5020199;28;20488;-50
2022/12/19 02:39:54;;;;;;;3.80;2.20;;;;;;;-1.53;100.00;101214.31;5022228;28;20490;-50
2022/12/19 02:42:28;;;;;;;1.23;1.00;;;;;;;-1.46;100.00;101210.22;5027891;28;20506;-54
2022/12/19 02:45:00;;;;;;;1.23;1.23;;;;;;;-1.48;100.00;101208.41;5027184;28;20461;-53
2022/12/19 02:47:28;;;;;;;3.90;2.77;;;;;;;-1.47;100.00;101205.84;5021074;28;21006;-55
2022/12/19 02:49:55;;;;;;;3.23;2.40;;;;;;;-1.51;100.00;101202.25;5020460;28;20496;-54
2022/12/19 02:52:21;;;;;;;2.90;2.20;;;;;;;-1.47;100.00;101195.41;5029223;28;20458;-55
2022/12/19 02:54:51;;;;;;;2.93;2.60;;;;;;;-1.45;100.00;101183.31;5032687;28;20455;-55
2022/12/19 02:57:26;;;;;;;9.60;3.33;;;;;;;-1.37;100.00;101186.16;5021813;28;20473;-55
2022/12/19 03:00:11;;;;;;;2.73;2.63;;;;;;;-1.32;100.00;101193.31;5020126;28;20832;-55
2022/12/19 03:03:01;;;;;;;2.10;2.00;;;;;;;-1.30;100.00;101207.28;5033022;28;20501;-56
2022/12/19 03:06:00;;;;;;;3.07;2.97;;;;;;;-1.27;100.00;101206.50;5022340;28;20455;-54
2022/12/19 03:08:45;;;;;;;5.63;2.53;;;;;;;-1.30;100.00;101207.28;5027086;28;20546;-55
2022/12/19 03:11:14;;;;;;;7.13;3.53;;;;;;;-1.34;100.00;101196.72;5026566;28;20453;-55
2022/12/19 03:14:09;;;;;;;2.03;0.93;;;;;;;-1.45;100.00;101195.47;5022789;28;20484;-55
2022/12/19 03:16:36;;;;;;;1.07;0.97;;;;;;;-1.38;100.00;101190.50;5014792;28;21018;-55
2022/12/19 03:19:10;;;;;;;2.63;2.17;;;;;;;-1.30;100.00;101191.66;5026423;28;20474;-54
2022/12/19 03:21:48;;;;;;;1.50;1.50;;;;;;;-1.30;100.00;101193.38;5014889;28;20452;-55
2022/12/19 03:24:16;;;;;;;8.20;3.33;;;;;;;-1.27;100.00;101196.97;5028911;28;20483;-55
2022/12/19 03:26:45;;;;;;;4.20;4.00;;;;;;;-1.29;100.00;101209.06;5017882;28;20457;-55
2022/12/19 03:29:37;;;;;;;5.27;3.53;;;;;;;-1.26;100.00;101203.06;5026245;28;20498;-55
2022/12/19 03:32:07;;;;;;;4.13;3.77;;;;;;;-1.20;100.00;101198.97;5026720;28;20448;-55
2022/12/19 03:34:42;;;;;;;17.87;3.57;;;;;;;-1.31;100.00;101187.28;5020483;28;20983;-55
2022/12/19 03:37:14;;;;;;;8.27;1.83;;;;;;;-1.27;100.00;101196.06;5025373;28;20447;-54
2022/12/19 03:39:44;;;;;;;4.43;2.83;;;;;;;-1.34;100.00;101192.38;5021657;28;20475;-56
2022/12/19 03:45:01;;;;;;;8.40;2.60;;;;;;;-1.20;100.00;101191.13;5020332;28;20519;-55
2022/12/19 03:47:37;;;;;;;5.90;2.50;;;;;;;-1.17;100.00;101185.13;5026396;28;20896;-55
2022/12/19 03:50:04;;;;;;;3.43;2.10;;;;;;;-1.21;100.00;101196.31;5026911;28;20487;-55
2022/12/19 03:52:52;;;;;;;6.20;3.57;;;;;;;-1.18;100.00;101191.19;5028563;28;20451;-55
2022/12/19 03:55:28;;;;;;;4.20;2.80;;;;;;;-1.02;100.00;101190.84;5019458;28;20451;-56
2022/12/19 03:58:00;;;;;;;5.13;4.00;;;;;;;-1.10;100.00;101194.91;5019796;28;20460;-55
2022/12/19 04:00:29;;;;;;;7.10;3.40;;;;;;;-1.06;100.00;101196.81;5025854;28;20441;-55
2022/12/19 04:02:58;;;;;;;3.80;2.17;;;;;;;-1.14;100.00;101182.59;5026183;28;20452;-56
2022/12/19 04:05:27;;;;;;;3.70;2.87;;;;;;;-1.01;100.00;101190.00;5020442;28;20451;-55
2022/12/19 04:08:01;;;;;;;6.93;3.03;;;;;;;-1.19;100.00;101173.75;5029861;28;20456;-56
2022/12/19 04:10:29;;;;;;;2.77;2.50;;;;;;;-1.07;100.00;101174.16;5021652;28;20541;-55
2022/12/19 04:13:19;;;;;;;2.03;1.93;;;;;;;-1.02;100.00;101183.00;5018933;28;20946;-56
2022/12/19 04:15:57;;;;;;;4.50;2.23;;;;;;;-0.93;100.00;101177.22;5032257;28;20519;-55
2022/12/19 04:18:24;;;;;;;30.93;4.53;;;;;;;-1.01;100.00;101165.63;5023948;28;20475;-56
2022/12/19 04:21:00;;;;;;;3.30;3.13;;;;;;;-1.08;100.00;101161.97;5025806;28;20448;-54
2022/12/19 04:23:32;;;;;;;2.80;2.60;;;;;;;-1.12;100.00;101146.13;5024080;28;20444;-55
2022/12/19 04:26:03;;;;;;;3.23;3.13;;;;;;;-1.03;100.00;101159.50;5019044;28;20451;-55
2022/12/19 04:28:47;;;;;;;7.33;3.40;;;;;;;-0.98;100.00;101160.50;5020323;28;21016;-55
2022/12/19 04:31:15;;;;;;;1.57;1.57;;;;;;;-1.04;100.00;101150.78;5017436;28;20484;-55
2022/12/19 04:33:42;;;;;;;4.33;4.07;;;;;;;-0.96;100.00;101154.53;5025554;28;20452;-55
2022/12/19 04:36:09;;;;;;;4.73;2.77;;;;;;;-0.96;100.00;101158.84;5023972;28;20486;-56
2022/12/19 04:38:36;;;;;;;1.40;1.40;;;;;;;-0.90;100.00;101149.50;5018680;28;21057;-55
2022/12/19 04:41:02;;;;;;;10.73;3.00;;;;;;;-0.94;100.00;101144.13;5023865;28;20456;-56
2022/12/19 04:43:29;;;;;;;3.53;2.03;;;;;;;-0.92;100.00;101142.47;5025478;28;20458;-56
2022/12/19 04:45:56;;;;;;;5.23;2.20;;;;;;;-0.86;100.00;101144.38;5020577;28;20456;-55
2022/12/19 04:48:24;;;;;;;4.47;4.27;;;;;;;-0.74;100.00;101148.25;5019284;28;20465;-56
2022/12/19 04:50:50;;;;;;;2.40;2.30;;;;;;;-0.76;100.00;101151.66;5027385;28;20488;-56
2022/12/19 04:53:17;;;;;;;8.50;3.07;;;;;;;-0.82;100.00;101157.56;5031722;28;20474;-55
2022/12/19 04:55:43;;;;;;;4.73;1.80;;;;;;;-0.79;100.00;101149.84;5026758;28;20448;-56
2022/12/19 04:58:10;;;;;;;10.67;2.87;;;;;;;-0.72;100.00;101148.28;5029301;28;20506;-55
2022/12/19 05:00:37;;;;;;;4.03;2.27;;;;;;;-0.75;100.00;101142.97;5024802;28;20941;-55
2022/12/19 05:03:03;;;;;;;3.37;2.70;;;;;;;-0.78;100.00;101141.16;5023902;28;20518;-56
2022/12/19 05:05:30;;;;;;;2.13;1.83;;;;;;;-0.86;100.00;101129.59;5025600;28;20447;-55
2022/12/19 05:07:56;;;;;;;1.37;0.97;;;;;;;-0.87;100.00;101132.16;5022411;28;20530;-56
2022/12/19 05:10:23;;;;;;;21.57;2.00;;;;;;;-0.95;100.00;101127.59;5025808;28;20514;-55
2022/12/19 05:12:50;;;;;;;6.90;2.57;;;;;;;-0.84;100.00;101132.25;5032285;28;20456;-56
2022/12/19 05:15:16;;;;;;;5.30;2.30;;;;;;;-0.77;100.00;101119.44;5034856;28;20458;-55
2022/12/19 05:17:43;;;;;;;5.23;4.83;;;;;;;-0.68;100.00;101124.06;5028221;28;20547;-56
2022/12/19 05:20:09;;;;;;;3.37;3.17;;;;;;;-0.74;100.00;101122.13;5025265;28;20479;-57
2022/12/19 05:22:36;;;;;;;2.53;1.53;;;;;;;-0.70;100.00;101121.38;5033589;28;20451;-55
2022/12/19 05:25:03;;;;;;;2.00;1.80;;;;;;;-0.57;100.00;101120.03;5028454;28;20457;-56
2022/12/19 05:27:29;;;;;;;2.13;1.97;;;;;;;-0.67;100.00;101121.50;5021620;28;20451;-55
2022/12/19 05:29:56;;;;;;;4.20;4.00;;;;;;;-0.59;100.00;101116.50;5025013;28;20498;-54
2022/12/19 05:32:22;;;;;;;3.90;3.70;;;;;;;-0.62;100.00;101124.25;5028497;28;20539;-56
2022/12/19 05:34:49;;;;;;;4.53;2.70;;;;;;;-0.60;100.00;101126.06;5025410;28;20478;-57
2022/12/19 05:37:15;;;;;;;10.37;3.60;;;;;;;-0.50;100.00;101122.00;5031664;28;20456;-56
2022/12/19 05:39:42;;;;;;;6.53;4.63;;;;;;;-0.47;100.00;101124.69;5020212;28;20852;-51
2022/12/19 05:42:08;;;;;;;2.30;2.10;;;;;;;-0.37;100.00;101124.13;5027816;28;20969;-51
2022/12/19 05:44:37;;;;;;;3.00;2.80;;;;;;;-0.43;100.00;101117.81;5028826;28;20451;-51
2022/12/19 05:47:04;;;;;;;4.53;3.50;;;;;;;-0.58;100.00;101122.59;5025586;28;21017;-51
2022/12/19 05:49:31;;;;;;;3.97;2.87;;;;;;;-0.52;100.00;101114.97;5024475;28;20518;-51
2022/12/19 05:51:57;;;;;;;3.70;1.50;;;;;;;-0.60;100.00;101122.56;5029786;28;20491;-53
2022/12/19 05:54:24;;;;;;;5.43;3.80;;;;;;;-0.53;100.00;101115.81;5034594;28;20462;-50
2022/12/19 05:56:51;;;;;;;4.30;3.13;;;;;;;-0.45;100.00;101129.94;5021304;28;20992;-52
2022/12/19 05:59:17;;;;;;;5.10;2.87;;;;;;;-0.30;100.00;101138.22;5023450;28;20477;-51
2022/12/19 06:01:44;;;;;;;5.63;3.80;;;;;;;-0.28;100.00;101143.50;5027646;28;20449;-51
2022/12/19 06:04:10;;;;;;;3.27;2.97;;;;;;;-0.12;100.00;101137.91;5025335;28;20451;-51
2022/12/19 06:06:37;;;;;;;1.47;1.37;;;;;;;-0.25;100.00;101133.16;5021367;28;20448;-50
2022/12/19 06:09:03;;;;;;;6.83;5.50;;;;;;;-0.13;100.00;101130.91;5023692;28;20990;-51
2022/12/19 06:11:30;;;;;;;4.83;4.43;;;;;;;-0.14;100.00;101134.31;5027686;28;20491;-51
2022/12/19 06:13:56;;;;;;;2.83;2.63;;;;;;;0.03;100.00;101134.81;5025079;28;20452;-52
2022/12/19 06:16:23;;;;;;;4.43;2.43;;;;;;;0.01;100.00;101140.00;5047802;28;20480;-51
2022/12/19 06:18:50;;;;;;;16.67;3.40;;;;;;;0.16;100.00;101143.03;5022506;28;20507;-51
2022/12/19 06:21:21;;;;;;;4.07;2.90;;;;;;;0.16;100.00;101155.22;5032046;28;20452;-55
2022/12/19 06:23:48;;;;;;;1.53;1.53;;;;;;;0.08;100.00;101154.13;5034048;28;20483;-54
2022/12/19 06:26:17;;;;;;;2.37;2.27;;;;;;;0.24;100.00;101157.19;5020713;28;20456;-55
2022/12/19 06:28:47;;;;;;;2.97;2.77;;;;;;;0.06;100.00;101146.22;5020979;28;20482;-53
2022/12/19 06:31:14;;;;;;;6.10;4.97;;;;;;;-0.04;100.00;101136.34;5021076;28;20491;-50
2022/12/19 06:33:41;;;;;;;1.63;1.53;;;;;;;-0.04;100.00;101118.97;5020812;28;20448;-49
2022/12/19 06:36:15;;;;;;;3.50;3.23;;;;;;;0.02;100.00;101131.31;5027288;28;20460;-49
2022/12/19 06:38:42;;;;;;;8.80;4.77;;;;;;;-0.05;100.00;101117.19;5027319;28;20479;-49
2022/12/19 06:44:02;;;;;;;11.70;4.40;;;;;;;-0.06;100.00;101125.00;5020811;28;20444;-49
2022/12/19 06:46:29;;;;;;;4.40;3.30;;;;;;;0.01;100.00;101128.66;5022044;28;20476;-51
2022/12/19 06:48:56;;;;;;;5.20;2.17;;;;;;;0.02;100.00;101128.72;5027447;28;20468;-50
2022/12/19 06:51:22;;;;;;;2.10;2.10;;;;;;;0.12;100.00;101128.09;5026003;28;20495;-49
2022/12/19 06:53:49;;;;;;;6.00;5.40;;;;;;;0.12;100.00;101127.22;5029348;28;20461;-50
2022/12/19 06:56:17;;;;;;;4.77;2.87;;;;;;;-0.03;100.00;101117.22;5020969;28;20449;-49
2022/12/19 06:58:43;;;;;;;6.80;3.53;;;;;;;-0.03;100.00;101118.09;5027514;28;20591;-49
2022/12/19 07:01:18;;;;;;;5.00;2.40;;;;;;;0.21;100.00;101117.91;5026822;28;20447;-49
2022/12/19 07:03:46;;;;;;;3.90;3.33;;;;;;;0.16;100.00;101121.25;5026082;28;20482;-50
2022/12/19 07:06:13;;;;;;;8.63;4.30;;;;;;;0.28;100.00;101125.06;5026846;28;20505;-50
2022/12/19 07:08:39;;;;;;;4.20;3.60;;;;;;;0.33;100.00;101132.13;5021259;28;20467;-50
2022/12/19 07:11:06;;;;;;;23.27;4.17;;;;;;;0.40;100.00;101118.38;5019788;28;20496;-49
2022/12/19 07:13:32;;;;;;;5.57;2.20;;;;;;;0.41;100.00;101115.81;5025858;28;20602;-51
2022/12/19 07:16:01;;;;;;;8.53;4.03;;;;;;;0.28;100.00;101101.53;5046068;28;20455;-50
2022/12/19 07:18:30;;;;;;;4.53;2.37;;;;;;;0.33;100.00;101106.88;5024205;28;20523;-50
2022/12/19 07:20:57;;;;;;;4.63;3.20;;;;;;;0.49;100.00;101110.75;5028022;28;20452;-50
2022/12/19 07:23:23;;;;;;;3.63;2.60;;;;;;;0.38;100.00;101117.44;5032947;28;20455;-50
2022/12/19 07:25:50;;;;;;;9.20;4.47;;;;;;;0.44;100.00;101104.53;5019376;28;20455;-50
2022/12/19 07:28:17;;;;;;;5.60;2.30;;;;;;;0.44;100.00;101110.66;5023535;28;20526;-50
2022/12/19 07:30:44;;;;;;;5.33;2.47;;;;;;;0.49;100.00;101124.72;5025832;28;20497;-50
2022/12/19 07:33:10;;;;;;;3.17;1.30;;;;;;;0.47;100.00;101126.41;5022507;28;21031;-50
2022/12/19 07:35:42;;;;;;;10.33;4.07;;;;;;;0.51;100.00;101114.31;5019352;28;20444;-50
2022/12/19 07:38:08;;;;;;;3.80;2.20;;;;;;;0.45;100.00;101112.44;5022411;28;20459;-51
2022/12/19 07:40:35;;;;;;;6.63;3.23;;;;;;;0.57;100.00;101120.59;5026112;28;20524;-50
2022/12/19 07:43:04;;;;;;;2.67;2.43;;;;;;;0.49;100.00;101122.09;5023337;28;21190;-50
2022/12/19 07:45:31;;;;;;;5.03;4.40;;;;;;;0.51;100.00;101127.38;5018868;28;20887;-51
2022/12/19 07:48:02;;;;;;;3.73;3.53;;;;;;;0.56;100.00;101129.28;5021447;28;20474;-49
2022/12/19 07:50:29;;;;;;;6.33;1.47;;;;;;;0.61;100.00;101129.38;5025772;28;20492;-51
2022/12/19 07:52:57;;;;;;;3.43;3.23;;;;;;;0.59;100.00;101129.34;5024065;28;20535;-50
2022/12/19 07:55:24;;;;;;;6.73;4.80;;;;;;;0.54;100.00;101119.59;5027254;28;20456;-51
2022/12/19 07:57:52;;;;;;;8.30;4.80;;;;;;;0.47;100.00;101118.56;5024500;28;20950;-50
2022/12/19 08:00:19;;;;;;;5.17;2.07;;;;;;;0.49;100.00;101132.56;5019488;28;20478;-50
2022/12/19 08:02:46;;;;;;;3.63;3.33;;;;;;;0.50;100.00;101131.72;5020016;28;20452;-49
2022/12/19 08:05:13;;;;;;;9.00;2.93;;;;;;;0.55;100.00;101129.25;5026163;28;20874;-49
2022/12/19 08:07:39;;;;;;;7.87;4.30;;;;;;;0.58;100.00;101135.44;5025340;28;20447;-50
2022/12/19 08:10:07;;;;;;;7.33;3.10;;;;;;;0.64;100.00;101129.47;5018809;28;20563;-49
2022/12/19 08:12:33;;;;;;;10.63;4.00;;;;;;;0.66;100.00;101130.38;5019493;28;20551;-50
2022/12/19 08:15:00;;;;;;;4.90;4.60;;;;;;;0.72;100.00;101129.66;5039426;28;20525;-50
2022/12/19 08:17:26;;;;;;;2.00;1.90;;;;;;;0.70;100.00;101127.00;5038106;28;20447;-51
2022/12/19 08:19:53;;;;;;;7.00;5.10;;;;;;;0.73;100.00;101129.69;5019729;28;20538;-50
2022/12/19 08:22:19;;;;;;;5.10;3.40;;;;;;;0.73;100.00;101132.31;5031131;28;20482;-49
2022/12/19 08:24:46;;;;;;;9.33;5.43;;;;;;;0.72;100.00;101130.53;5024482;28;20449;-54
2022/12/19 08:27:14;;;;;;;3.63;3.50;;;;;;;0.69;100.00;101127.88;5025646;28;20483;-55
2022/12/19 08:29:41;;;;;;;6.93;5.93;;;;;;;0.70;100.00;101123.50;5020194;28;20467;-55
2022/12/19 08:32:07;;;;;;;3.90;3.20;;;;;;;0.64;100.00;101118.09;5019080;28;20492;-54
2022/12/19 08:34:34;;;;;;;6.10;2.83;;;;;;;0.63;100.00;101114.59;5024019;28;20827;-54
2022/12/19 08:37:00;;;;;;;4.03;3.83;;;;;;;0.74;100.00;101123.63;5007946;28;20528;-55
2022/12/19 08:39:27;;;;;;;10.03;4.03;;;;;;;0.77;100.00;101125.41;5020638;28;20573;-55
2022/12/19 08:41:53;;;;;;;7.33;4.20;;;;;;;0.80;100.00;101123.75;5019199;28;20883;-50
2022/12/19 08:44:20;;;;;;;7.73;5.60;;;;;;;0.76;100.00;101116.69;5023065;28;20452;-50
2022/12/19 08:46:46;;;;;;;6.93;3.47;;;;;;;1.13;100.00;101115.81;5025762;28;20467;-50
2022/12/19 08:49:16;;;;;;;4.30;3.07;;;;;;;0.81;100.00;101114.16;5021428;28;20472;-49
2022/12/19 08:51:42;;;;;;;3.93;3.60;;;;;;;0.78;100.00;101109.75;5018521;28;20579;-49
2022/12/19 08:54:09;;;;;;;12.60;5.23;;;;;;;0.78;100.00;101099.28;5031618;28;20482;-50
2022/12/19 08:56:38;;;;;;;4.40;4.10;;;;;;;0.94;100.00;101102.25;5018383;28;20955;-49
2022/12/19 08:59:13;;;;;;;6.80;6.10;;;;;;;0.85;100.00;101105.56;5021184;28;20475;-50
2022/12/19 09:01:50;;;;;;;9.10;5.37;;;;;;;0.75;100.00;101091.38;5025345;28;20444;-50
2022/12/19 09:04:17;;;;;;;7.00;2.53;;;;;;;0.81;100.00;101098.47;5024431;28;20964;-49
2022/12/19 09:07:04;;;;;;;25.47;5.47;;;;;;;0.85;100.00;101095.09;5020994;28;20443;-50
2022/12/19 09:09:31;;;;;;;15.43;3.20;;;;;;;0.94;100.00;101100.53;5018487;28;20528;-50
2022/12/19 09:11:58;;;;;;;13.33;5.60;;;;;;;1.07;100.00;101099.97;5022814;28;20496;-50
2022/12/19 09:14:24;;;;;;;11.33;6.30;;;;;;;0.92;100.00;101101.34;5029871;28;20569;-50
2022/12/19 09:16:51;;;;;;;4.20;3.47;;;;;;;1.24;100.00;101115.19;5042665;28;20478;-51
2022/12/19 09:19:17;;;;;;;7.83;4.00;;;;;;;1.29;100.00;101110.94;5018178;28;20499;-50
2022/12/19 09:21:44;;;;;;;5.30;4.33;;;;;;;1.11;100.00;101114.03;5029871;28;20539;-50
2022/12/19 09:24:10;;;;;;;11.43;4.00;;;;;;;0.99;100.00;101108.50;5028796;28;20467;-50
2022/12/19 09:26:38;;;;;;;5.70;3.27;;;;;;;1.08;100.00;101109.56;5021156;28;20483;-50
2022/12/19 09:29:05;;;;;;;8.13;4.40;;;;;;;0.97;100.00;101111.09;5018290;28;20475;-50
2022/12/19 09:31:45;;;;;;;19.57;5.57;;;;;;;0.98;100.00;101109.34;5020286;28;20535;-50
2022/12/19 09:34:12;;;;;;;5.33;4.93;;;;;;;1.03;100.00;101111.22;5025491;28;20449;-51
2022/12/19 09:36:38;;;;;;;3.13;2.87;;;;;;;1.02;100.00;101108.56;5026361;28;20546;-50
2022/12/19 09:39:05;;;;;;;5.33;3.40;;;;;;;0.87;100.00;101099.50;5021959;28;20499;-51
2022/12/19 09:41:40;;;;;;;7.80;6.10;;;;;;;1.01;100.00;101112.03;5023796;28;20449;-50
2022/12/19 09:44:12;;;;;;;6.17;2.40;;;;;;;1.33;100.00;101118.88;5011153;28;20523;-50
2022/12/19 09:46:46;;;;;;;4.73;4.27;;;;;;;1.19;100.00;101105.47;5028693;28;20459;-50
2022/12/19 09:49:22;;;;;;;6.67;3.67;;;;;;;1.14;100.00;101095.75;5023495;28;20578;-50
2022/12/19 09:51:59;;;;;;;8.53;5.50;;;;;;;1.09;100.00;101090.41;5021875;28;21231;-50
2022/12/19 09:54:34;;;;;;;5.13;4.27;;;;;;;1.06;100.00;101089.47;5026008;28;20451;-51
2022/12/19 09:57:05;;;;;;;9.50;4.50;;;;;;;1.09;100.00;101081.66;5021655;28;20456;-51
2022/12/19 09:59:41;;;;;;;8.00;5.57;;;;;;;1.13;100.00;101083.53;5022174;28;20487;-50
2022/12/19 10:02:34;;;;;;;23.43;6.70;;;;;;;1.11;100.00;101080.00;5023204;28;20498;-50
2022/12/19 10:05:14;;;;;;;7.90;3.80;;;;;;;1.07;100.00;101084.25;5020953;28;20800;-51
2022/12/19 10:08:00;;;;;;;10.03;5.50;;;;;;;1.22;100.00;101093.31;5021557;28;20448;-52
2022/12/19 10:10:46;;;;;;;10.63;6.60;;;;;;;1.29;100.00;101085.63;5024087;28;20452;-52
2022/12/19 10:13:57;;;;;;;7.50;3.57;;;;;;;1.10;100.00;101075.63;5023025;28;20472;-52
2022/12/19 10:16:47;;;;;;;11.40;3.37;;;;;;;1.16;100.00;101086.22;5047934;28;20470;-50
2022/12/19 10:20:15;;;;;;;20.83;4.93;;;;;;;1.38;100.00;101066.63;5020767;28;20495;-51
2022/12/19 10:22:55;;;;;;;4.77;4.47;;;;;;;1.33;100.00;101073.47;5020013;28;20452;-51
2022/12/19 10:25:40;;;;;;;5.30;4.00;;;;;;;1.65;100.00;101076.78;5022069;28;20451;-51
2022/12/19 10:28:29;;;;;;;2.80;2.60;;;;;;;1.50;100.00;101066.84;5022548;28;20452;-51
2022/12/19 10:31:20;;;;;;;3.70;3.30;;;;;;;1.31;100.00;101060.34;5021105;28;20488;-50
2022/12/19 10:34:10;;;;;;;4.40;3.20;;;;;;;1.30;100.00;101063.81;5020700;28;20873;-51
2022/12/19 10:36:43;;;;;;;8.23;5.17;;;;;;;1.23;100.00;101061.03;5023230;28;20449;-51
2022/12/19 10:39:34;;;;;;;4.73;4.30;;;;;;;1.28;100.00;101057.69;5022458;28;20530;-51
2022/12/19 10:42:14;;;;;;;12.43;6.30;;;;;;;1.56;100.00;101051.28;5020801;28;20441;-51
2022/12/19 10:44:43;;;;;;;2.87;2.63;;;;;;;1.39;100.00;101048.31;5022987;28;20453;-51
2022/12/19 10:47:15;;;;;;;3.67;3.30;;;;;;;1.34;100.00;101052.56;5027209;28;20449;-51
2022/12/19 10:49:41;;;;;;;4.87;4.20;;;;;;;1.38;100.00;101049.16;5025807;28;20474;-51
2022/12/19 10:52:11;;;;;;;10.17;4.10;;;;;;;1.50;100.00;101051.13;5020099;28;20483;-53
2022/12/19 10:54:40;;;;;;;6.90;4.60;;;;;;;1.45;100.00;101052.78;5033659;28;20822;-51
2022/12/19 10:57:27;;;;;;;8.23;4.63;;;;;;;1.54;100.00;101046.84;5019967;28;20822;-50
2022/12/19 10:59:59;;;;;;;2.67;2.47;;;;;;;1.63;100.00;101028.69;5020010;28;20472;-51
2022/12/19 11:02:31;;;;;;;2.37;2.07;;;;;;;1.41;100.00;101030.91;5023663;28;20931;-51
2022/12/19 11:04:58;;;;;;;10.43;5.80;;;;;;;1.37;100.00;101033.41;5026896;28;20455;-51
2022/12/19 11:07:24;;;;;;;7.37;5.10;;;;;;;1.43;100.00;101037.03;5024212;28;20455;-51
2022/12/19 11:09:51;;;;;;;5.13;2.60;;;;;;;1.54;100.00;101039.00;5019783;28;20989;-51
2022/12/19 11:12:51;;;;;;;6.70;6.20;;;;;;;1.43;100.00;101038.78;5019908;28;21037;-52
2022/12/19 11:15:46;;;;;;;12.60;4.90;;;;;;;1.42;100.00;101029.16;5045557;28;20478;-51
2022/12/19 11:18:52;;;;;;;6.20;5.13;;;;;;;1.38;100.00;101020.38;5022964;28;20468;-50
2022/12/19 11:21:39;;;;;;;7.80;7.03;;;;;;;1.46;100.00;101013.53;5014391;28;20476;-50
2022/12/19 11:24:35;;;;;;;10.93;4.37;;;;;;;1.39;100.00;101016.00;5031347;28;20468;-51
2022/12/19 11:27:40;;;;;;;5.10;4.47;;;;;;;1.39;100.00;101019.50;5019973;28;20489;-50
2022/12/19 11:30:28;;;;;;;3.00;2.70;;;;;;;1.41;100.00;101024.78;5019562;28;20938;-50
2022/12/19 11:33:17;;;;;;;10.70;3.40;;;;;;;1.65;100.00;101033.13;5022859;28;20861;-51
2022/12/19 11:35:52;;;;;;;7.87;5.90;;;;;;;1.85;100.00;101028.25;5026191;28;20977;-52
2022/12/19 11:38:43;;;;;;;13.17;6.67;;;;;;;1.62;100.00;101025.19;5024690;28;20921;-51
2022/12/19 11:41:30;;;;;;;3.27;1.80;;;;;;;1.67;100.00;101020.94;5024684;28;20818;-50
2022/12/19 11:44:26;;;;;;;3.93;3.63;;;;;;;1.72;100.00;101010.53;5026335;28;20452;-50
2022/12/19 11:47:11;;;;;;;5.63;3.03;;;;;;;1.64;100.00;101009.50;5025983;28;20444;-51
2022/12/19 11:49:43;;;;;;;8.77;3.50;;;;;;;2.03;100.00;101022.44;5023697;28;20554;-51
2022/12/19 11:52:41;;;;;;;7.97;5.40;;;;;;;1.71;100.00;101014.88;5019286;28;20514;-51